Garyville, Louisiana
Current Conditions -  °F | °C
As of 3:55 AM on Sunday 21 Dec 2014 (Local Time) from K1L0 Reporting Station
Overcast Overcast  
Wind Chill: 53°   Ceiling: 1300
Heat Index: 53°   Visibility: 10mi
Dew Point: 48°   Wind: 6mph
Humidity: 84%   Direction: 30°NNE
Pressure: 30.12"   Gusts: NA
Location:  30.08°N, 90.62°W
Report Text: K1L0 210955Z AUTO 03005KT 10SM OVC013 12/09 A3012 RMK AO2 P0001 T01160089
Loading
Personal Weather Stations






























Interactive Weather Map New forecast layout! Learn more

10-Day Weather Forecast

Advertisements
Track Severe Weather on mobile